Willow Island, West Virginia
Current Conditions -  °F | °C
As of 6:53 AM on Sunday 25 Jan 2015 (Local Time) from KPKB Reporting Station
Haze Haze  
Wind Chill: -3°   Ceiling: Unl
Heat Index:   Visibility: 5mi
Dew Point: -1°   Wind: 5mph
Humidity: 92%   Direction: 190°S
Pressure: 29.82"   Gusts: NA
Location:  39.3518°N, 81.2939°W
Report Text: KPKB 251153Z 19004KT 5SM BR CLR 00/M01 A2982 RMK AO2 SLP104 T00001011 10011 20000 55002
Loading
Personal Weather Stations






























Interactive Weather Map New forecast layout! Learn more

10-Day Weather Forecast

Advertisements
Track Severe Weather on mobile